Time;durP1;ratioP1;P1;durP2;ratioP2;P2;SDS_P1;SDS_P2;PMS_P1;PMS_P2;Temp;Humidity;BMP_temperature;BMP_pressure;BME280_temperature;BME280_humidity;BME280_pressure;Samples;Min_cycle;Max_cycle;Signal;HPM_P1;HPM_P2
2022/07/17 00:00:00;;;;;;;4.10;1.10;;;15.90;86.00;;;;;;5032853;28;20017;-72
2022/07/17 00:02:26;;;;;;;7.13;1.88;;;15.90;86.40;;;;;;5033193;28;20463;-72
2022/07/17 00:04:52;;;;;;;7.97;1.52;;;15.90;86.20;;;;;;5032635;28;20301;-73
2022/07/17 00:07:18;;;;;;;7.40;1.60;;;15.80;86.60;;;;;;5032356;28;20433;-72
2022/07/17 00:09:43;;;;;;;6.63;1.27;;;15.80;87.40;;;;;;5032364;28;20044;-72
2022/07/17 00:12:09;;;;;;;6.03;1.33;;;15.70;86.60;;;;;;5032705;28;20026;-73
2022/07/17 00:14:35;;;;;;;6.25;1.52;;;15.70;86.90;;;;;;5033063;28;20401;-73
2022/07/17 00:17:01;;;;;;;5.28;1.10;;;15.70;87.40;;;;;;5032755;28;20033;-73
2022/07/17 00:19:27;;;;;;;3.95;1.60;;;15.50;88.00;;;;;;5032353;28;20115;-73
2022/07/17 00:21:53;;;;;;;5.05;1.60;;;15.50;88.00;;;;;;5032273;28;20034;-73
2022/07/17 00:24:22;;;;;;;8.23;1.40;;;15.50;88.20;;;;;;5032363;28;20044;-72
2022/07/17 00:26:50;;;;;;;6.25;1.05;;;15.50;88.10;;;;;;5032899;28;20106;-72
2022/07/17 00:29:16;;;;;;;4.05;1.40;;;15.40;88.50;;;;;;5031391;28;20036;-72
2022/07/17 00:31:43;;;;;;;6.38;2.17;;;15.40;89.10;;;;;;5032151;28;20064;-73
2022/07/17 00:34:08;;;;;;;4.68;1.45;;;15.30;89.50;;;;;;5031998;28;20052;-73
2022/07/17 00:36:34;;;;;;;7.78;1.40;;;15.30;89.50;;;;;;5032160;28;20038;-73
2022/07/17 00:39:00;;;;;;;6.43;1.48;;;15.30;89.90;;;;;;5031935;28;20022;-73
2022/07/17 00:41:25;;;;;;;56.05;29.65;;;15.30;90.00;;;;;;5032084;28;20026;-73
2022/07/17 00:43:51;;;;;;;10.70;4.30;;;15.30;89.80;;;;;;5031795;28;20049;-73
2022/07/17 00:46:17;;;;;;;9.77;2.05;;;15.20;90.10;;;;;;5031899;28;20072;-73
2022/07/17 00:48:43;;;;;;;6.30;2.00;;;15.20;89.60;;;;;;5031647;28;20044;-73
2022/07/17 00:51:09;;;;;;;8.77;1.67;;;15.10;90.20;;;;;;5030650;28;20033;-72
2022/07/17 00:53:36;;;;;;;4.72;1.27;;;15.00;90.70;;;;;;5032397;28;20040;-72
2022/07/17 00:56:06;;;;;;;6.10;1.40;;;15.10;90.50;;;;;;5032167;28;20076;-72
2022/07/17 00:58:36;;;;;;;6.75;1.50;;;15.00;90.90;;;;;;5031629;28;20034;-73
2022/07/17 01:01:08;;;;;;;6.40;1.30;;;15.00;90.70;;;;;;5031690;28;20029;-73
2022/07/17 01:03:34;;;;;;;6.28;1.60;;;15.00;90.50;;;;;;5031430;28;20467;-73
2022/07/17 01:06:00;;;;;;;6.50;1.58;;;14.90;90.80;;;;;;5031279;28;20025;-73
2022/07/17 01:08:26;;;;;;;9.00;3.30;;;14.90;90.80;;;;;;5030980;28;20025;-73
2022/07/17 01:10:52;;;;;;;6.20;1.50;;;14.90;90.90;;;;;;5031333;28;20037;-73
2022/07/17 01:13:18;;;;;;;5.43;1.25;;;14.90;90.90;;;;;;5031255;28;20038;-73
2022/07/17 01:15:44;;;;;;;6.60;1.95;;;14.90;90.90;;;;;;5031454;28;20041;-74
2022/07/17 01:18:12;;;;;;;6.55;1.60;;;14.80;91.10;;;;;;5031414;28;20025;-73
2022/07/17 01:20:41;;;;;;;3.33;1.33;;;14.80;91.10;;;;;;5030610;28;20033;-72
2022/07/17 01:23:07;;;;;;;5.68;1.42;;;14.80;91.10;;;;;;5030969;28;20037;-73
2022/07/17 01:25:34;;;;;;;5.35;1.70;;;14.80;91.50;;;;;;5031145;28;20056;-73
2022/07/17 01:28:01;;;;;;;6.82;1.67;;;14.80;91.70;;;;;;5031253;28;20030;-73
2022/07/17 01:30:27;;;;;;;4.35;1.35;;;14.70;91.40;;;;;;5031147;28;20374;-73
2022/07/17 01:32:52;;;;;;;5.00;1.38;;;14.70;91.50;;;;;;5029892;28;20116;-72
2022/07/17 01:35:18;;;;;;;9.20;1.60;;;14.70;91.50;;;;;;5027596;28;20040;-73
2022/07/17 01:37:44;;;;;;;8.88;1.65;;;14.80;91.50;;;;;;5011140;28;20056;-74
2022/07/17 01:40:13;;;;;;;10.75;2.00;;;14.70;91.40;;;;;;5010956;28;20394;-73
2022/07/17 01:42:41;;;;;;;5.07;1.38;;;14.70;91.40;;;;;;5011050;28;20037;-73
2022/07/17 01:45:08;;;;;;;4.18;1.50;;;14.70;91.20;;;;;;5010866;28;20018;-73
2022/07/17 01:47:34;;;;;;;7.63;1.70;;;14.70;91.30;;;;;;5011306;28;20022;-74
2022/07/17 01:50:02;;;;;;;6.60;1.90;;;14.70;91.30;;;;;;5010064;28;20096;-73
2022/07/17 01:52:28;;;;;;;5.93;1.50;;;14.70;91.80;;;;;;5011022;28;20037;-73
2022/07/17 01:54:54;;;;;;;7.05;1.73;;;14.70;92.20;;;;;;5010723;28;20046;-72
2022/07/17 01:57:20;;;;;;;4.93;1.75;;;14.70;91.90;;;;;;5010964;28;20117;-73
2022/07/17 01:59:46;;;;;;;6.40;1.63;;;14.70;91.80;;;;;;5011351;28;20441;-73
2022/07/17 02:02:15;;;;;;;4.60;1.58;;;14.70;91.60;;;;;;5010722;28;20345;-74
2022/07/17 02:04:41;;;;;;;7.72;1.58;;;14.70;91.80;;;;;;5010851;28;20026;-73
2022/07/17 02:07:08;;;;;;;7.38;1.85;;;14.70;91.50;;;;;;5010791;28;20117;-72
2022/07/17 02:09:34;;;;;;;5.93;1.70;;;14.70;91.80;;;;;;5010583;28;20036;-72
2022/07/17 02:12:00;;;;;;;7.65;2.10;;;14.80;91.80;;;;;;5010347;28;20448;-72
2022/07/17 02:14:26;;;;;;;3.95;1.60;;;14.70;91.60;;;;;;5011157;28;20029;-73
2022/07/17 02:16:52;;;;;;;6.47;1.73;;;14.70;91.80;;;;;;5009699;28;20037;-72
2022/07/17 02:19:18;;;;;;;9.50;1.98;;;14.60;92.20;;;;;;5010885;28;20033;-73
2022/07/17 02:21:44;;;;;;;9.43;1.80;;;14.60;91.90;;;;;;5010442;28;20099;-73
2022/07/17 02:24:09;;;;;;;5.03;1.58;;;14.60;91.90;;;;;;5010577;28;20359;-73
2022/07/17 02:26:35;;;;;;;7.82;1.70;;;14.60;92.30;;;;;;5010008;28;20018;-72
2022/07/17 02:29:01;;;;;;;6.88;1.48;;;14.60;92.10;;;;;;5010934;28;20041;-73
2022/07/17 02:31:27;;;;;;;7.97;1.75;;;14.50;92.60;;;;;;5010920;28;20030;-72
2022/07/17 02:33:52;;;;;;;6.72;1.52;;;14.50;92.70;;;;;;5010644;28;20192;-73
2022/07/17 02:36:18;;;;;;;8.18;1.60;;;14.50;92.80;;;;;;5010533;28;20070;-73
2022/07/17 02:38:44;;;;;;;5.72;1.60;;;14.50;92.90;;;;;;5011027;28;20026;-73
2022/07/17 02:41:10;;;;;;;5.45;1.73;;;14.50;93.00;;;;;;5010109;28;20413;-73
2022/07/17 02:43:36;;;;;;;5.95;1.70;;;14.50;93.00;;;;;;5010474;28;20133;-72
2022/07/17 02:46:06;;;;;;;4.72;1.25;;;14.40;93.10;;;;;;5010466;28;20056;-73
2022/07/17 02:48:32;;;;;;;12.80;1.92;;;14.30;93.20;;;;;;5009415;28;20033;-73
2022/07/17 02:50:58;;;;;;;8.88;1.73;;;14.40;93.20;;;;;;5010380;28;20163;-73
2022/07/17 02:53:23;;;;;;;4.93;1.60;;;14.30;93.30;;;;;;5012650;28;20294;-73
2022/07/17 02:55:49;;;;;;;4.38;1.50;;;14.30;93.20;;;;;;5013952;28;20057;-73
2022/07/17 02:58:15;;;;;;;10.63;1.80;;;14.30;93.20;;;;;;5013114;28;20030;-73
2022/07/17 03:00:40;;;;;;;7.93;1.27;;;14.30;93.30;;;;;;5014492;28;20119;-72
2022/07/17 03:03:06;;;;;;;8.63;1.50;;;14.30;93.50;;;;;;5014096;28;20029;-73
2022/07/17 03:05:32;;;;;;;6.95;1.77;;;14.20;93.40;;;;;;5014551;28;20361;-73
2022/07/17 03:07:57;;;;;;;6.78;1.83;;;14.30;93.20;;;;;;5014089;28;20045;-72
2022/07/17 03:10:24;;;;;;;8.85;1.63;;;14.30;93.50;;;;;;5012448;28;20034;-73
2022/07/17 03:12:50;;;;;;;5.43;1.60;;;14.20;93.40;;;;;;5013903;28;20044;-74
2022/07/17 03:15:15;;;;;;;6.70;1.60;;;14.30;93.10;;;;;;5014110;28;20030;-73
2022/07/17 03:17:41;;;;;;;7.40;1.52;;;14.30;93.20;;;;;;5013368;28;20367;-73
2022/07/17 03:20:09;;;;;;;4.35;1.30;;;14.20;93.70;;;;;;5013940;28;20037;-72
2022/07/17 03:22:34;;;;;;;4.35;1.58;;;14.10;93.80;;;;;;5013714;28;20037;-71
2022/07/17 03:25:00;;;;;;;4.90;1.20;;;14.10;93.70;;;;;;5013803;28;20057;-73
2022/07/17 03:27:26;;;;;;;8.35;2.03;;;14.10;93.90;;;;;;5013708;28;20038;-72
2022/07/17 03:29:53;;;;;;;6.13;1.20;;;14.10;94.00;;;;;;5014150;28;20479;-71
2022/07/17 03:32:19;;;;;;;5.38;1.67;;;14.10;94.00;;;;;;5014170;28;20037;-73
2022/07/17 03:34:45;;;;;;;6.85;1.45;;;14.00;94.20;;;;;;5013671;28;20467;-71
2022/07/17 03:37:11;;;;;;;6.97;2.28;;;14.00;94.10;;;;;;5013612;28;20037;-72
2022/07/17 03:39:36;;;;;;;3.03;1.17;;;14.10;93.80;;;;;;5013397;28;20547;-72
2022/07/17 03:42:02;;;;;;;9.13;1.83;;;14.10;93.80;;;;;;5013282;28;20409;-73
2022/07/17 03:44:28;;;;;;;4.88;1.58;;;14.10;94.00;;;;;;5013778;28;20341;-73
2022/07/17 03:46:54;;;;;;;4.70;1.42;;;14.00;94.30;;;;;;5013308;28;20022;-73
2022/07/17 03:49:20;;;;;;;5.65;1.65;;;14.00;94.10;;;;;;5013306;28;20033;-73
2022/07/17 03:51:45;;;;;;;6.53;1.40;;;14.00;94.10;;;;;;5013444;28;20113;-73
2022/07/17 03:54:11;;;;;;;7.82;1.85;;;14.10;93.90;;;;;;5013280;28;20026;-72
2022/07/17 03:56:36;;;;;;;6.82;1.83;;;14.10;93.80;;;;;;5013575;28;20078;-72
2022/07/17 03:59:02;;;;;;;7.55;1.70;;;14.10;93.50;;;;;;5013073;28;20050;-73
2022/07/17 04:01:28;;;;;;;8.32;1.67;;;14.10;93.80;;;;;;4995511;28;20030;-72
2022/07/17 04:03:54;;;;;;;9.38;1.80;;;14.10;93.70;;;;;;5012201;28;20034;-73
2022/07/17 04:06:19;;;;;;;7.10;1.50;;;14.20;93.70;;;;;;5012418;28;20026;-72
2022/07/17 04:08:45;;;;;;;4.30;1.25;;;14.10;93.60;;;;;;5013266;28;20033;-72
2022/07/17 04:11:11;;;;;;;6.13;1.65;;;14.10;94.00;;;;;;5013330;28;20424;-72
2022/07/17 04:13:37;;;;;;;5.80;1.38;;;14.20;93.90;;;;;;5013210;28;20295;-73
2022/07/17 04:16:06;;;;;;;9.82;1.20;;;14.20;93.90;;;;;;5011641;28;20041;-72
2022/07/17 04:18:34;;;;;;;9.52;1.98;;;14.30;93.90;;;;;;5012805;28;20079;-72
2022/07/17 04:21:10;;;;;;;5.10;0.95;;;14.30;93.80;;;;;;5012792;28;20025;-73
2022/07/17 04:23:36;;;;;;;5.50;1.33;;;14.30;93.90;;;;;;5012990;28;20164;-73
2022/07/17 04:26:08;;;;;;;4.63;1.23;;;14.30;93.80;;;;;;5012724;28;20030;-73
2022/07/17 04:28:34;;;;;;;9.73;1.40;;;14.40;94.10;;;;;;5012603;28;20144;-73
2022/07/17 04:31:01;;;;;;;2.80;1.30;;;14.40;93.80;;;;;;5012668;28;20049;-72
2022/07/17 04:33:27;;;;;;;6.80;1.30;;;14.50;94.20;;;;;;5012648;28;20445;-72
2022/07/17 04:35:53;;;;;;;3.83;1.30;;;14.50;93.80;;;;;;5012944;28;20042;-72
2022/07/17 04:38:19;;;;;;;11.02;1.50;;;14.60;93.50;;;;;;5013068;28;20041;-73
2022/07/17 04:40:46;;;;;;;5.72;1.75;;;14.60;93.10;;;;;;5011632;28;20034;-72
2022/07/17 04:43:12;;;;;;;8.30;1.42;;;14.70;93.80;;;;;;5012437;28;20044;-72
2022/07/17 04:45:38;;;;;;;8.20;1.77;;;14.70;93.60;;;;;;5011502;28;20372;-73
2022/07/17 04:48:04;;;;;;;5.72;1.23;;;14.90;93.60;;;;;;5011238;28;20050;-72
2022/07/17 04:50:30;;;;;;;5.25;1.38;;;14.90;93.60;;;;;;5011649;28;20538;-73
2022/07/17 04:52:56;;;;;;;7.80;1.25;;;15.00;93.60;;;;;;5012055;28;20034;-73
2022/07/17 04:55:22;;;;;;;11.05;1.40;;;15.00;93.60;;;;;;5010909;28;20198;-72
2022/07/17 04:57:48;;;;;;;9.23;1.45;;;15.10;93.30;;;;;;5012009;28;20030;-72
2022/07/17 05:00:15;;;;;;;4.95;1.20;;;15.20;93.40;;;;;;5010918;28;20434;-72
2022/07/17 05:02:41;;;;;;;7.22;1.77;;;15.30;93.10;;;;;;5012618;28;20443;-72
2022/07/17 05:05:07;;;;;;;7.70;1.48;;;15.30;93.10;;;;;;5010875;28;20030;-72
2022/07/17 05:07:33;;;;;;;9.20;1.35;;;15.30;93.10;;;;;;5012081;28;20030;-72
2022/07/17 05:09:58;;;;;;;7.43;1.10;;;15.20;93.50;;;;;;5010770;28;20041;-71
2022/07/17 05:12:24;;;;;;;7.55;1.40;;;15.20;93.20;;;;;;5011690;28;20030;-72
2022/07/17 05:14:50;;;;;;;5.85;1.30;;;15.20;93.10;;;;;;5012413;28;20026;-72
2022/07/17 05:17:16;;;;;;;7.30;1.60;;;15.30;93.30;;;;;;5011785;28;20364;-72
2022/07/17 05:19:41;;;;;;;4.22;1.23;;;15.40;93.20;;;;;;5010522;28;20096;-73
2022/07/17 05:22:07;;;;;;;4.00;1.50;;;15.40;93.10;;;;;;5010397;28;20095;-72
2022/07/17 05:24:33;;;;;;;4.80;1.25;;;15.50;93.10;;;;;;5011445;28;20026;-72
2022/07/17 05:27:00;;;;;;;2.83;0.93;;;15.50;93.10;;;;;;5010460;28;20026;-73
2022/07/17 05:29:26;;;;;;;4.57;1.00;;;15.50;92.90;;;;;;5012029;28;20068;-73
2022/07/17 05:31:51;;;;;;;10.80;1.42;;;15.50;92.80;;;;;;5011571;28;20049;-73
2022/07/17 05:34:17;;;;;;;6.20;1.52;;;15.60;92.70;;;;;;5010401;28;20368;-72
2022/07/17 05:36:43;;;;;;;3.67;1.10;;;15.50;92.70;;;;;;5011409;28;20036;-72
2022/07/17 05:39:08;;;;;;;5.93;1.20;;;15.60;92.70;;;;;;5011713;28;20598;-72
2022/07/17 05:41:34;;;;;;;10.80;1.60;;;15.60;92.60;;;;;;5011806;28;20385;-73
2022/07/17 05:44:00;;;;;;;7.78;1.35;;;15.60;92.60;;;;;;5011100;28;20037;-72
2022/07/17 05:46:26;;;;;;;11.77;1.38;;;15.60;92.50;;;;;;5011007;28;20081;-72
2022/07/17 05:48:51;;;;;;;4.03;1.02;;;15.70;92.40;;;;;;5011385;28;20132;-72
2022/07/17 05:51:17;;;;;;;5.43;1.30;;;15.70;92.60;;;;;;5011269;28;20040;-72
2022/07/17 05:53:43;;;;;;;7.82;1.38;;;15.80;92.50;;;;;;5011563;28;20097;-72
2022/07/17 05:56:08;;;;;;;6.18;1.65;;;15.90;92.40;;;;;;5010907;28;20045;-73
2022/07/17 05:58:34;;;;;;;7.53;1.55;;;16.00;92.30;;;;;;5011139;28;20038;-72
2022/07/17 06:01:00;;;;;;;7.70;1.58;;;16.00;92.10;;;;;;5010944;28;20587;-73
2022/07/17 06:03:25;;;;;;;6.75;1.05;;;16.10;92.10;;;;;;5011108;28;20037;-73
2022/07/17 06:05:51;;;;;;;3.42;1.08;;;16.10;92.10;;;;;;5011864;28;20064;-74
2022/07/17 06:08:17;;;;;;;9.02;1.30;;;16.20;92.10;;;;;;5010819;28;20038;-73
2022/07/17 06:10:42;;;;;;;7.22;1.23;;;16.20;92.00;;;;;;5010829;28;20346;-74
2022/07/17 06:13:08;;;;;;;3.10;1.00;;;16.20;91.90;;;;;;5010991;28;20487;-74
2022/07/17 06:15:34;;;;;;;7.85;1.88;;;16.10;91.90;;;;;;5010633;28;20486;-72
2022/07/17 06:18:03;;;;;;;10.93;1.70;;;16.20;92.00;;;;;;5010594;28;20048;-73
2022/07/17 06:20:30;;;;;;;6.57;1.50;;;16.20;92.00;;;;;;5011052;28;20030;-73
2022/07/17 06:22:57;;;;;;;5.30;1.20;;;16.30;91.90;;;;;;5010640;28;20136;-73
2022/07/17 06:25:23;;;;;;;11.82;1.50;;;16.40;91.80;;;;;;5010771;28;20449;-73
2022/07/17 06:27:49;;;;;;;6.60;1.00;;;16.50;91.70;;;;;;5010070;28;20034;-72
2022/07/17 06:30:16;;;;;;;4.25;1.35;;;16.50;91.70;;;;;;5010523;28;20026;-73
2022/07/17 06:32:42;;;;;;;5.88;1.63;;;16.50;91.40;;;;;;5011100;28;20033;-72
2022/07/17 06:35:09;;;;;;;9.10;1.35;;;16.50;91.50;;;;;;5009458;28;20111;-73
2022/07/17 06:37:35;;;;;;;10.35;1.33;;;16.50;91.50;;;;;;5010598;28;20060;-73
2022/07/17 06:40:02;;;;;;;7.32;1.27;;;16.60;91.20;;;;;;5010363;28;20405;-73
2022/07/17 06:42:27;;;;;;;6.05;1.23;;;16.70;91.20;;;;;;5009092;28;20041;-73
2022/07/17 06:44:53;;;;;;;11.88;1.42;;;16.60;91.30;;;;;;5009313;28;20022;-71
2022/07/17 06:47:19;;;;;;;8.55;1.23;;;16.70;91.30;;;;;;5010927;28;20056;-74
2022/07/17 06:49:44;;;;;;;7.07;1.42;;;16.80;91.00;;;;;;5010297;28;20096;-75
2022/07/17 06:52:10;;;;;;;11.10;1.67;;;16.90;90.90;;;;;;5010408;28;20046;-74
2022/07/17 06:54:35;;;;;;;6.65;1.45;;;16.90;91.00;;;;;;5010055;28;20477;-74
2022/07/17 06:57:01;;;;;;;6.68;1.25;;;17.00;90.90;;;;;;5010899;28;20443;-75
2022/07/17 06:59:27;;;;;;;8.10;1.15;;;17.10;90.70;;;;;;5009843;28;20395;-73
2022/07/17 07:01:53;;;;;;;5.85;1.50;;;17.30;90.50;;;;;;5009209;28;20040;-72
2022/07/17 07:04:19;;;;;;;3.95;1.10;;;17.30;90.40;;;;;;5010263;28;20034;-72
2022/07/17 07:06:44;;;;;;;6.65;1.10;;;17.40;90.50;;;;;;5010447;28;20034;-71
2022/07/17 07:09:13;;;;;;;5.50;1.35;;;17.60;90.70;;;;;;5010233;28;20022;-72
2022/07/17 07:11:41;;;;;;;5.18;1.40;;;17.60;90.30;;;;;;5010943;28;20029;-73
2022/07/17 07:14:07;;;;;;;6.32;1.27;;;17.60;90.30;;;;;;5010528;28;20455;-72
2022/07/17 07:16:34;;;;;;;8.90;1.58;;;17.70;90.20;;;;;;5010183;28;20034;-72
2022/07/17 07:19:00;;;;;;;6.15;1.13;;;17.80;90.10;;;;;;5010133;28;20041;-72
2022/07/17 07:21:26;;;;;;;4.80;1.00;;;17.80;89.90;;;;;;5010336;28;20412;-72
2022/07/17 07:23:52;;;;;;;7.45;1.30;;;17.90;90.00;;;;;;5009240;28;20049;-72
2022/07/17 07:26:18;;;;;;;7.35;1.08;;;18.00;89.50;;;;;;5010384;28;20553;-73
2022/07/17 07:28:44;;;;;;;6.15;1.08;;;18.00;89.00;;;;;;5010071;28;20384;-72
2022/07/17 07:31:10;;;;;;;5.45;1.08;;;18.10;88.60;;;;;;5010098;28;20126;-73
2022/07/17 07:33:36;;;;;;;9.38;1.45;;;18.10;88.30;;;;;;5008807;28;20030;-71
2022/07/17 07:36:08;;;;;;;3.75;1.45;;;18.10;88.60;;;;;;5027571;28;20044;-70
2022/07/17 07:38:34;;;;;;;6.05;1.20;;;18.10;88.20;;;;;;5030609;28;20029;-71
2022/07/17 07:41:00;;;;;;;10.55;1.17;;;18.00;87.50;;;;;;5033298;28;20183;-72
2022/07/17 07:43:25;;;;;;;7.57;1.27;;;18.10;87.40;;;;;;5033288;28;20041;-71
2022/07/17 07:45:51;;;;;;;6.45;1.48;;;17.90;87.30;;;;;;5033431;28;20041;-71
2022/07/17 07:48:17;;;;;;;7.45;1.17;;;17.90;87.30;;;;;;5033357;28;20029;-71
2022/07/17 07:50:42;;;;;;;7.60;1.20;;;18.10;87.60;;;;;;5033483;28;20100;-71
2022/07/17 07:53:08;;;;;;;5.72;0.95;;;18.20;87.00;;;;;;5033377;28;20037;-71
2022/07/17 07:55:34;;;;;;;7.30;1.45;;;18.30;86.80;;;;;;5033047;28;20093;-70
2022/07/17 07:58:08;;;;;;;7.93;1.20;;;18.40;86.10;;;;;;5033104;28;20034;-70
2022/07/17 08:00:35;;;;;;;3.47;0.90;;;18.50;86.30;;;;;;5033358;28;20044;-70
2022/07/17 08:03:01;;;;;;;7.38;1.30;;;18.60;85.60;;;;;;5033043;28;20446;-71
2022/07/17 08:05:27;;;;;;;9.25;1.45;;;18.70;85.30;;;;;;5033261;28;20017;-71
2022/07/17 08:07:53;;;;;;;6.32;0.90;;;18.80;84.70;;;;;;5033118;28;20029;-72
2022/07/17 08:10:19;;;;;;;5.95;1.00;;;19.00;84.90;;;;;;5033195;28;20113;-71
2022/07/17 08:12:44;;;;;;;7.95;1.17;;;19.00;84.60;;;;;;5032195;28;20041;-70
2022/07/17 08:15:10;;;;;;;7.53;1.42;;;19.20;84.30;;;;;;5013425;28;20452;-69
2022/07/17 08:17:36;;;;;;;6.22;1.38;;;19.50;84.00;;;;;;5013387;28;20053;-69
2022/07/17 08:20:03;;;;;;;6.15;1.30;;;19.60;83.50;;;;;;5012788;28;20041;-69
2022/07/17 08:22:28;;;;;;;7.18;1.13;;;20.00;82.70;;;;;;5012780;28;20121;-70
2022/07/17 08:24:54;;;;;;;7.28;1.60;;;20.80;82.40;;;;;;5012788;28;20117;-69
2022/07/17 08:27:20;;;;;;;4.45;1.42;;;21.20;79.10;;;;;;5012776;28;20026;-70
2022/07/17 08:29:45;;;;;;;7.43;1.10;;;22.00;77.70;;;;;;5012354;28;20056;-69
2022/07/17 08:32:11;;;;;;;5.60;1.05;;;22.40;78.40;;;;;;5012585;28;20166;-69
2022/07/17 08:34:37;;;;;;;6.47;1.13;;;22.90;74.90;;;;;;5012416;28;20060;-70
2022/07/17 08:37:03;;;;;;;6.95;1.30;;;23.40;75.00;;;;;;5011603;28;20038;-70
2022/07/17 08:39:28;;;;;;;5.68;1.20;;;23.60;72.80;;;;;;5012610;28;20057;-71
2022/07/17 08:41:54;;;;;;;4.60;1.10;;;24.50;72.30;;;;;;5012958;28;20029;-72
2022/07/17 08:44:19;;;;;;;3.58;0.88;;;24.60;69.10;;;;;;5012837;28;20021;-70
2022/07/17 08:46:46;;;;;;;4.25;0.95;;;24.90;69.00;;;;;;5012506;28;20451;-70
2022/07/17 08:49:14;;;;;;;11.02;1.20;;;24.50;68.00;;;;;;5012097;28;20065;-70
2022/07/17 08:51:39;;;;;;;;;;;24.00;68.60;;;;;;5011778;28;20487;-71
2022/07/17 08:54:05;;;;;;;7.45;1.27;;;23.90;68.40;;;;;;5010766;28;19905;-70
2022/07/17 08:56:31;;;;;;;7.15;1.38;;;23.50;69.80;;;;;;5012360;28;20058;-68
2022/07/17 08:58:57;;;;;;;4.00;1.00;;;23.50;69.80;;;;;;5010754;28;20417;-70
2022/07/17 09:01:24;;;;;;;5.38;1.25;;;23.50;70.10;;;;;;5012000;28;20128;-69
2022/07/17 09:03:55;;;;;;;7.22;1.55;;;23.70;69.20;;;;;;5011947;28;20129;-71
2022/07/17 09:06:21;;;;;;;4.10;0.98;;;23.80;68.90;;;;;;5012082;28;20117;-71
2022/07/17 09:08:48;;;;;;;4.40;1.17;;;23.50;68.90;;;;;;5012571;28;20061;-72
2022/07/17 09:11:14;;;;;;;4.95;1.30;;;23.20;68.00;;;;;;5011915;28;20104;-71
2022/07/17 09:13:46;;;;;;;9.65;1.67;;;23.40;69.60;;;;;;5011815;28;20321;-73
2022/07/17 09:16:12;;;;;;;5.47;1.40;;;23.20;68.90;;;;;;5010460;28;20116;-71
2022/07/17 09:18:55;;;;;;;4.45;0.98;;;22.90;70.10;;;;;;5011631;28;20122;-70
2022/07/17 09:21:29;;;;;;;8.52;1.45;;;22.90;70.90;;;;;;5011499;28;20022;-73
2022/07/17 09:24:06;;;;;;;6.57;1.25;;;23.70;69.60;;;;;;5010792;28;20045;-72
2022/07/17 09:26:34;;;;;;;5.28;1.20;;;23.60;68.50;;;;;;5031939;28;20014;-69
2022/07/17 09:29:04;;;;;;;7.47;1.67;;;23.50;69.20;;;;;;5031570;28;20551;-70
2022/07/17 09:31:33;;;;;;;7.30;1.23;;;23.60;70.20;;;;;;5031694;28;20041;-70
2022/07/17 09:33:59;;;;;;;5.78;1.60;;;23.60;69.00;;;;;;5030399;28;20036;-69
2022/07/17 09:36:26;;;;;;;5.43;1.20;;;23.80;68.90;;;;;;5031359;28;20033;-70
2022/07/17 09:38:56;;;;;;;8.82;1.30;;;23.60;68.80;;;;;;5031542;28;20283;-70
2022/07/17 09:41:25;;;;;;;5.72;1.23;;;24.20;68.00;;;;;;5031532;28;20080;-70
2022/07/17 09:43:59;;;;;;;10.13;1.55;;;24.50;65.70;;;;;;5031309;28;20033;-69
2022/07/17 09:46:33;;;;;;;5.35;0.93;;;24.40;66.50;;;;;;5029917;28;20033;-69
2022/07/17 09:49:09;;;;;;;5.28;0.90;;;24.50;66.70;;;;;;5031028;28;20040;-69
2022/07/17 09:51:39;;;;;;;6.82;1.55;;;24.50;64.90;;;;;;5029816;28;20215;-70
2022/07/17 09:54:07;;;;;;;7.40;1.15;;;24.10;64.80;;;;;;5030531;28;20108;-69
2022/07/17 09:56:35;;;;;;;4.75;0.90;;;24.10;65.80;;;;;;5031334;28;20037;-69
2022/07/17 09:59:04;;;;;;;7.53;1.27;;;23.60;66.10;;;;;;5030755;28;20032;-67
2022/07/17 10:01:31;;;;;;;1.95;0.70;;;23.70;66.60;;;;;;5030550;28;20408;-66
2022/07/17 10:03:57;;;;;;;8.68;1.10;;;24.10;66.40;;;;;;5030267;28;20107;-66
2022/07/17 10:06:25;;;;;;;5.68;1.60;;;24.40;65.60;;;;;;5030593;28;20341;-68
2022/07/17 10:08:51;;;;;;;7.82;1.55;;;24.60;66.80;;;;;;5030954;28;20049;-70
2022/07/17 10:11:20;;;;;;;5.18;1.52;;;24.60;66.00;;;;;;5030993;28;20037;-70
2022/07/17 10:13:47;;;;;;;7.47;1.27;;;24.60;67.10;;;;;;5030176;28;20026;-71
2022/07/17 10:16:14;;;;;;;4.38;1.10;;;24.70;65.30;;;;;;5029556;28;20444;-69
2022/07/17 10:18:44;;;;;;;7.43;1.15;;;24.70;62.50;;;;;;5030654;28;20061;-70
2022/07/17 10:21:11;;;;;;;9.63;1.95;;;24.40;62.50;;;;;;5029334;28;20036;-69
2022/07/17 10:23:37;;;;;;;4.93;1.00;;;24.40;62.60;;;;;;5030736;28;20487;-69
2022/07/17 10:26:08;;;;;;;6.90;1.27;;;24.00;64.10;;;;;;5030200;28;20287;-69
2022/07/17 10:28:47;;;;;;;5.70;1.52;;;24.20;64.30;;;;;;5030353;28;20136;-68
2022/07/17 10:31:26;;;;;;;7.93;1.35;;;23.80;63.70;;;;;;5030044;28;20033;-69
2022/07/17 10:34:05;;;;;;;4.80;1.60;;;24.00;64.20;;;;;;5029036;28;20037;-68
2022/07/17 10:36:35;;;;;;;12.98;2.20;;;24.20;64.70;;;;;;5029997;28;20337;-72
2022/07/17 10:39:17;;;;;;;5.00;0.93;;;24.00;72.30;;;;;;5030437;28;20144;-72
2022/07/17 10:41:59;;;;;;;6.68;1.10;;;24.00;64.80;;;;;;5030102;28;20105;-70
2022/07/17 10:44:31;;;;;;;5.50;1.23;;;24.20;65.10;;;;;;5029899;28;20037;-69
2022/07/17 10:46:58;;;;;;;8.57;1.35;;;23.70;63.80;;;;;;5016343;28;20037;-68
2022/07/17 10:49:25;;;;;;;4.80;1.08;;;23.20;64.20;;;;;;5010168;28;20376;-69
2022/07/17 10:51:52;;;;;;;5.68;1.25;;;23.40;64.80;;;;;;5010167;28;20113;-69
2022/07/17 10:54:18;;;;;;;10.73;2.50;;;23.40;65.00;;;;;;5009913;28;20153;-68
2022/07/17 10:56:44;;;;;;;3.88;1.42;;;23.60;64.30;;;;;;5010734;28;20112;-76
2022/07/17 10:59:11;;;;;;;10.85;1.80;;;23.90;65.30;;;;;;5010033;28;20088;-77
2022/07/17 11:01:37;;;;;;;8.38;1.70;;;24.50;66.30;;;;;;5009244;28;20052;-75
2022/07/17 11:04:04;;;;;;;9.63;1.38;;;24.90;64.70;;;;;;5010592;28;20046;-80
2022/07/17 11:06:38;;;;;;;9.00;1.55;;;25.00;62.30;;;;;;5011207;28;20034;-77
2022/07/17 11:09:12;;;;;;;5.93;0.98;;;25.10;63.40;;;;;;5010003;28;20018;-76
2022/07/17 11:11:40;;;;;;;4.20;1.40;;;25.20;61.10;;;;;;5011090;28;20022;-78
2022/07/17 11:14:18;;;;;;;10.35;1.35;;;25.10;63.20;;;;;;5011542;28;20046;-76
2022/07/17 11:16:51;;;;;;;9.50;1.65;;;25.20;61.70;;;;;;5013715;28;20113;-71
2022/07/17 11:19:33;;;;;;;5.65;1.65;;;25.10;61.40;;;;;;5013860;28;20033;-72
2022/07/17 11:22:03;;;;;;;7.07;1.00;;;25.20;61.70;;;;;;5013841;28;20117;-71
2022/07/17 11:24:41;;;;;;;4.75;1.08;;;25.00;60.30;;;;;;5012136;28;20046;-71
2022/07/17 11:27:09;;;;;;;5.18;1.45;;;24.90;60.70;;;;;;5013467;28;20495;-71
2022/07/17 11:29:41;;;;;;;13.93;1.95;;;24.90;59.80;;;;;;5014204;28;20041;-73
2022/07/17 11:32:07;;;;;;;31.38;3.30;;;25.10;64.80;;;;;;5013355;28;20125;-74
2022/07/17 11:34:33;;;;;;;10.48;1.90;;;25.30;64.90;;;;;;5012695;28;20116;-77
2022/07/17 11:37:01;;;;;;;6.97;1.77;;;24.90;59.70;;;;;;5013297;28;20030;-73
2022/07/17 11:39:36;;;;;;;;;;;24.80;59.60;;;;;;5013782;28;20061;-73
2022/07/17 11:42:02;;;;;;;20.42;1.80;;;24.60;60.70;;;;;;5013489;28;19909;-74
2022/07/17 11:44:28;;;;;;;7.68;1.73;;;24.60;62.20;;;;;;5013646;28;20033;-71
2022/07/17 11:46:54;;;;;;;10.82;1.23;;;24.80;63.00;;;;;;5013605;28;20022;-68
2022/07/17 11:49:28;;;;;;;4.95;1.35;;;24.90;60.60;;;;;;5011625;28;20769;-73
2022/07/17 11:51:56;;;;;;;6.15;1.65;;;24.70;58.70;;;;;;5013139;28;20445;-68
2022/07/17 11:54:22;;;;;;;4.70;1.60;;;24.50;58.90;;;;;;5013213;28;20049;-70
2022/07/17 11:56:57;;;;;;;5.25;1.10;;;24.50;59.50;;;;;;5013667;28;20022;-71
2022/07/17 11:59:29;;;;;;;5.43;1.50;;;24.40;59.20;;;;;;5013319;28;20356;-69
2022/07/17 12:01:55;;;;;;;4.72;1.42;;;24.50;58.90;;;;;;5013180;28;20492;-72
2022/07/17 12:04:22;;;;;;;4.03;1.30;;;24.50;59.10;;;;;;5012832;28;20132;-73
2022/07/17 12:07:00;;;;;;;8.02;1.40;;;24.50;59.80;;;;;;5011862;28;20095;-70
2022/07/17 12:09:27;;;;;;;7.30;1.30;;;24.60;60.10;;;;;;5012931;28;20452;-72
2022/07/17 12:11:53;;;;;;;5.30;1.10;;;24.60;60.00;;;;;;5012874;28;20029;-73
2022/07/17 12:14:19;;;;;;;6.53;1.58;;;24.70;59.50;;;;;;5012947;28;20044;-69
2022/07/17 12:16:45;;;;;;;6.25;1.27;;;24.50;59.10;;;;;;5013511;28;20397;-69
2022/07/17 12:19:15;;;;;;;3.55;0.95;;;24.30;59.30;;;;;;5013545;28;20113;-72
2022/07/17 12:21:53;;;;;;;3.70;1.08;;;24.40;60.20;;;;;;5013524;28;20144;-70
2022/07/17 12:24:35;;;;;;;6.05;1.25;;;24.60;60.50;;;;;;5013007;28;20530;-70
2022/07/17 12:27:09;;;;;;;6.22;1.40;;;24.60;59.90;;;;;;5012376;28;20056;-70
2022/07/17 12:29:35;;;;;;;7.68;1.30;;;24.70;59.50;;;;;;5014024;28;20033;-71
2022/07/17 12:32:08;;;;;;;7.07;1.67;;;24.80;59.70;;;;;;5012327;28;20033;-71
2022/07/17 12:34:36;;;;;;;11.80;1.60;;;24.90;58.50;;;;;;5013275;28;20030;-70
2022/07/17 12:37:02;;;;;;;5.22;1.23;;;24.70;59.00;;;;;;5012270;28;20487;-71
2022/07/17 12:39:28;;;;;;;9.27;1.90;;;24.60;59.00;;;;;;5012151;28;20531;-69
2022/07/17 12:41:54;;;;;;;6.63;1.20;;;24.70;58.80;;;;;;5012164;28;20028;-70
2022/07/17 12:44:19;;;;;;;5.28;1.40;;;24.60;59.00;;;;;;5011451;28;20034;-70